Oscar, Louisiana
Current Conditions -  °F | °C
As of 8:35 PM on Friday 28 Nov 2014 (Local Time) from KHZR Reporting Station
Clear Clear  
Wind Chill: 50°   Ceiling: Unl
Heat Index: 50°   Visibility: 10mi
Dew Point: 40°   Wind: 8mph
Humidity: 69%   Direction: 130°SE
Pressure: 30.25"   Gusts: NA
Location:  30.61°N, 91.46°W
Report Text: KHZR 290235Z AUTO 13007KT 10SM CLR 10/05 A3025 RMK AO2 T01010046
Loading
Personal Weather Stations






























Interactive Weather Map New forecast layout! Learn more

10-Day Weather Forecast

Advertisements
Track Severe Weather on mobile